Terminal Aerodrome Forecast
Issued by NWS Upton, NY

Current Version | Previous Version | Text Only | Print | Product List | Glossary On
Versions: 1 2 3 4 5 6 7 8 9 10 11 12 13 14 15 16 17 18 19 20 21 22 23 24 25 26
000
FTUS41 KOKX 280700 AAA
TAFLGA
TAF AMD
KLGA 280722Z 2807/2906 18010KT 6SM -TSRA FEW008 SCT050CB BKN120
     FM280900 18011KT 6SM BR VCSH FEW008 SCT050 BKN120
     FM281200 21012G17KT P6SM BKN040
     FM281700 23018G25KT P6SM SCT050
     FM282300 29019G27KT P6SM FEW050=

USA.gov is the U.S. government's official web portal to all federal, state and local government web resources and services.